Costa Luminosa — ICGU — position and weather

sailwx.info

Track history (hours):
 
Tides and Currents Weather Stations Pressure Air Temp Water Temp Dewpoint Dewpoint Depression Visibility Wind Speed Wind Dir Waves Ship Positions

Costa Luminosa

Last reported at 2020-Oct-29 01:00 UTC. Time now 2020-Oct-29 01:16 UTC.
Position N 44°00' E 009°50'.

Length 294 m; draft 8.1 m.

Type: Passenger vessel. MMSI: 247257900.

Date/timePositionNaut miles runAvg speedWind from/ knotsBaromVisibWave heightAir tempDewpointWater temp
2020-Oct-29 01:00N 44°00' E 009°50'0 0.0
2020-Oct-28 23:30N 44°00' E 009°50'0 0.0
2020-Oct-28 22:30N 44°00' E 009°50'0 0.0
2020-Oct-28 21:00N 44°00' E 009°50'0 0.0
2020-Oct-28 20:00N 44°00' E 009°50'0 0.0
2020-Oct-28 17:30N 44°00' E 009°50'0 0.0
2020-Oct-28 15:00N 44°00' E 009°50'0 0.0
2020-Oct-28 13:00N 44°00' E 009°50'0 0.0
2020-Oct-28 11:27N 44°00' E 009°50'0 0.0
2020-Oct-28 11:00N 44°00' E 009°50'0 0.5
2020-Oct-28 10:47N 44°00' E 009°50'2 6.8
2020-Oct-28 10:31N 44°02' E 009°51'2132.8
2020-Oct-28 10:30N 44°00' E 009°50'611.8
2020-Oct-28 10:01N 44°06' E 009°50'6430.1
2020-Oct-28 10:00N 44°00' E 009°50'5 3.2
2020-Oct-28 08:30N 44°05' E 009°51'5547.0
2020-Oct-28 08:30N 44°00' E 009°50'0 0.0
2020-Oct-28 07:30N 44°00' E 009°50'0 1.3
2020-Oct-28 07:25N 44°00' E 009°50'0 0.1
2020-Oct-28 06:30N 44°00' E 009°50'0 0.0
2020-Oct-28 04:00N 44°00' E 009°50'0 0.0
2020-Oct-27 23:00N 44°00' E 009°50'0 0.0
2020-Oct-27 21:00N 44°00' E 009°50'0 0.0
2020-Oct-27 20:00N 44°00' E 009°50'0 0.0
2020-Oct-27 17:00N 44°00' E 009°50'0 0.0
2020-Oct-27 15:00N 44°00' E 009°50'0 0.0
2020-Oct-27 12:30N 44°00' E 009°50'0 0.0
2020-Oct-27 11:00N 44°00' E 009°50'0 0.2
2020-Oct-27 10:30N 44°00' E 009°50'0 0.1
2020-Oct-27 09:30N 44°00' E 009°50'0 0.0
2020-Oct-27 08:00N 44°00' E 009°50'0 0.0
2020-Oct-27 07:30N 44°00' E 009°50'4 2.6
2020-Oct-27 05:59N 44°03' E 009°54'0 0.0
2020-Oct-27 03:29N 44°03' E 009°54'0 0.1
2020-Oct-27 02:59N 44°03' E 009°54'0 0.0
2020-Oct-26 23:29N 44°03' E 009°54'0 0.0
2020-Oct-26 18:29N 44°03' E 009°54'0 0.0
2020-Oct-26 11:29N 44°03' E 009°54'4 4.1
2020-Oct-26 10:30N 44°06' E 009°50'4282.3
2020-Oct-26 10:29N 44°03' E 009°54'0 0.0
2020-Oct-26 06:59N 44°03' E 009°54'0 4.6
2020-Oct-26 06:58N 44°03' E 009°53'0 0.2
2020-Oct-26 06:29N 44°03' E 009°54'0 0.1
2020-Oct-26 05:59N 44°03' E 009°54'0 0.0
2020-Oct-26 05:29N 44°03' E 009°54'0 0.0
2020-Oct-26 04:56N 44°03' E 009°54'0 0.0
2020-Oct-26 02:29N 44°03' E 009°54'0 0.0
2020-Oct-26 00:29N 44°03' E 009°54'0 0.0
2020-Oct-25 22:59N 44°03' E 009°54'0 0.0
2020-Oct-25 18:59N 44°03' E 009°54'0 0.0
2020-Oct-25 18:29N 44°03' E 009°54'0 0.0
2020-Oct-25 17:29N 44°03' E 009°54'0 0.3
2020-Oct-25 17:12N 44°03' E 009°54'4 5.9
2020-Oct-25 16:29N 44°06' E 009°50'415368.4
2020-Oct-25 16:29N 44°03' E 009°54'4 8.5
2020-Oct-25 15:59N 44°06' E 009°50'47670.0
2020-Oct-25 15:59N 44°03' E 009°54'4 8.5
2020-Oct-25 15:29N 44°06' E 009°50'47645.8
2020-Oct-25 15:29N 44°03' E 009°54'3 2.6
2020-Oct-25 14:30N 44°05' E 009°51'3139.1
2020-Oct-25 14:29N 44°03' E 009°54'4 0.9
2020-Oct-25 10:31N 44°01' E 009°50'0 0.0
2020-Oct-25 08:30N 44°01' E 009°50'0 0.0
2020-Oct-25 05:30N 44°01' E 009°50'0 0.0
2020-Oct-25 04:30N 44°01' E 009°50'0 0.0
2020-Oct-25 03:00N 44°01' E 009°50'0 0.0
2020-Oct-25 02:00N 44°01' E 009°50'0 0.0
2020-Oct-25 00:00N 44°01' E 009°50'0 0.0
2020-Oct-24 22:30N 44°01' E 009°50'0 0.1
2020-Oct-24 22:00N 44°01' E 009°50'0 0.0
2020-Oct-24 18:00N 44°01' E 009°50'0 0.1
2020-Oct-24 16:30N 44°01' E 009°50'518768.9
2020-Oct-24 16:30N 44°06' E 009°51'5 2.1
2020-Oct-24 14:00N 44°01' E 009°50'0 0.0
2020-Oct-24 12:00N 44°01' E 009°50'6271.7
2020-Oct-24 11:59N 44°06' E 009°50'4 4.4
2020-Oct-24 11:00N 44°02' E 009°51'2604.7
2020-Oct-24 11:00N 44°01' E 009°50'0 0.0
2020-Oct-24 10:00N 44°01' E 009°50'0 0.0
2020-Oct-24 03:00N 44°01' E 009°50'0 0.0
2020-Oct-24 01:30N 44°01' E 009°50'0 0.0
2020-Oct-23 23:30N 44°01' E 009°50'0 0.0
2020-Oct-23 22:00N 44°01' E 009°50'0 0.0
2020-Oct-23 16:30N 44°01' E 009°50'0 0.0
2020-Oct-23 10:30N 44°00' E 009°50'2886.3
2020-Oct-23 10:30N 44°03' E 009°51'0 5.1
2020-Oct-23 10:29N 44°03' E 009°51'2 1.2
2020-Oct-23 08:30N 44°01' E 009°50'0 0.0
2020-Oct-23 07:30N 44°00' E 009°50'6289.3
2020-Oct-23 07:29N 44°06' E 009°50'0 0.2
2020-Oct-23 07:19N 44°06' E 009°50'618.8
2020-Oct-23 07:00N 44°01' E 009°50'311936.0
2020-Oct-23 07:00N 44°04' E 009°51'021.5
2020-Oct-23 06:59N 44°04' E 009°51'4 7.7
2020-Oct-23 06:30N 44°01' E 009°50'0 0.0
2020-Oct-23 04:00N 44°00' E 009°50'0 0.0
2020-Oct-23 00:30N 44°00' E 009°50'0 0.0
2020-Oct-22 22:30N 44°00' E 009°50'0 0.0
2020-Oct-22 18:30N 44°00' E 009°50'0 0.0
2020-Oct-22 18:00N 44°00' E 009°50'0 0.0
2020-Oct-22 15:00N 44°00' E 009°50'621384.7
2020-Oct-22 15:00N 44°06' E 009°50'1 2.7
2020-Oct-22 14:30N 44°05' E 009°51'55662.5
2020-Oct-22 14:30N 44°00' E 009°50'0 0.0
2020-Oct-22 14:00N 44°00' E 009°50'1152.2
2020-Oct-22 14:00N 44°01' E 009°51'1 0.4
2020-Oct-22 11:00N 44°00' E 009°50'0 0.1
2020-Oct-22 10:30N 44°00' E 009°50'5 2.1
2020-Oct-22 08:01N 44°06' E 009°50'51566.7
2020-Oct-22 08:00N 44°00' E 009°50'611.9
2020-Oct-22 07:30N 44°06' E 009°50'67123.1
2020-Oct-22 07:30N 44°00' E 009°50'1 1.2
2020-Oct-22 06:30N 44°01' E 009°51'1727.4
2020-Oct-22 06:30N 44°00' E 009°50'0 0.0
2020-Oct-22 05:00N 44°00' E 009°50'0 0.0
2020-Oct-22 03:30N 44°00' E 009°50'0 0.0
2020-Oct-22 00:00N 44°00' E 009°50'0 0.0
2020-Oct-21 23:30N 44°00' E 009°50'0 0.0
2020-Oct-21 20:00N 44°00' E 009°50'0 0.0
2020-Oct-21 19:00N 44°00' E 009°50'0 0.0
2020-Oct-21 17:30N 44°00' E 009°50'0 0.0
2020-Oct-21 14:30N 44°00' E 009°50'3490.5
2020-Oct-21 14:30N 44°04' E 009°51'3 2.3
2020-Oct-21 13:00N 44°00' E 009°50'0 0.0
2020-Oct-21 09:30N 44°00' E 009°50'1415.2
2020-Oct-21 09:30N 44°01' E 009°51'1 1.4
2020-Oct-21 09:00N 44°00' E 009°50'52982.5
2020-Oct-21 09:00N 44°05' E 009°50'510.0
2020-Oct-21 08:30N 44°00' E 009°50'67243.2
2020-Oct-21 08:30N 44°06' E 009°50'6 6.0
2020-Oct-21 07:30N 44°00' E 009°50'67236.0
2020-Oct-21 07:30N 44°06' E 009°50'5 5.4
2020-Oct-21 06:30N 44°01' E 009°51'1797.4
2020-Oct-21 06:30N 44°00' E 009°50'0 0.2
2020-Oct-21 06:00N 44°00' E 009°50'066.7
2020-Oct-21 06:00N 44°00' E 009°50'0 0.0
2020-Oct-21 04:30N 44°00' E 009°50'0 0.0
2020-Oct-21 04:00N 44°00' E 009°50'0 0.0
2020-Oct-21 03:30N 44°00' E 009°50'0 0.0
2020-Oct-21 02:30N 44°00' E 009°50'0 0.0
2020-Oct-21 00:30N 44°00' E 009°50'0 0.0
2020-Oct-20 19:30N 44°00' E 009°50'2 0.6
2020-Oct-20 16:00N 44°02' E 009°51'2690.0
2020-Oct-20 16:00N 44°00' E 009°50'0 0.0
2020-Oct-20 13:00N 44°00' E 009°50'0 0.0
2020-Oct-20 08:30N 44°00' E 009°50'6149.3
2020-Oct-20 08:28N 44°06' E 009°50'6 3.1
2020-Oct-20 06:30N 44°00' E 009°50'0 0.7
2020-Oct-20 06:25N 44°00' E 009°50'0 0.1
2020-Oct-20 05:00N 44°00' E 009°50'0 0.0
2020-Oct-20 04:00N 44°00' E 009°50'0 0.0
2020-Oct-20 03:30N 44°00' E 009°50'0 0.0
2020-Oct-19 20:30N 44°00' E 009°50'0 0.0
2020-Oct-19 20:00N 44°00' E 009°50'0 0.0
2020-Oct-19 15:00N 44°00' E 009°50'0 0.0
2020-Oct-19 14:00N 44°00' E 009°50'0 0.0
2020-Oct-19 13:00N 44°00' E 009°50'0 0.0
2020-Oct-19 11:00N 44°00' E 009°50'0 0.0
2020-Oct-19 09:00N 44°00' E 009°50'0 1.6
2020-Oct-19 08:58N 44°00' E 009°50'0 0.1
2020-Oct-19 08:30N 44°00' E 009°50'31661.9
2020-Oct-19 08:30N 44°04' E 009°51'3 2.2
2020-Oct-19 07:00N 44°00' E 009°50'2247.5
2020-Oct-19 07:00N 44°02' E 009°52'2 0.9
2020-Oct-19 04:30N 44°00' E 009°50'0 0.0
2020-Oct-19 03:00N 44°00' E 009°50'0 0.0
2020-Oct-19 02:30N 44°00' E 009°50'0 0.0
2020-Oct-19 01:00N 44°00' E 009°50'  
Track history (hours):
 
Tides and Currents Weather Stations Pressure Air Temp Water Temp Dewpoint Dewpoint Depression Visibility Wind Speed Wind Dir Waves Ship Positions

Costa Luminosa

Last reported at 2020-Oct-29 01:00 UTC. Time now 2020-Oct-29 01:16 UTC.
Position N 44°00' E 009°50'.

Length 294 m; draft 8.1 m.

Type: Passenger vessel. MMSI: 247257900.

Date/timePositionNaut miles runAvg speedWind from/ knotsBaromVisibWave heightAir tempDewpointWater temp
2020-Oct-29 01:00N 44°00' E 009°50'0 0.0
2020-Oct-28 23:30N 44°00' E 009°50'0 0.0
2020-Oct-28 22:30N 44°00' E 009°50'0 0.0
2020-Oct-28 21:00N 44°00' E 009°50'0 0.0
2020-Oct-28 20:00N 44°00' E 009°50'0 0.0
2020-Oct-28 17:30N 44°00' E 009°50'0 0.0
2020-Oct-28 15:00N 44°00' E 009°50'0 0.0
2020-Oct-28 13:00N 44°00' E 009°50'0 0.0
2020-Oct-28 11:27N 44°00' E 009°50'0 0.0
2020-Oct-28 11:00N 44°00' E 009°50'0 0.5
2020-Oct-28 10:47N 44°00' E 009°50'2 6.8
2020-Oct-28 10:31N 44°02' E 009°51'2132.8
2020-Oct-28 10:30N 44°00' E 009°50'611.8
2020-Oct-28 10:01N 44°06' E 009°50'6430.1
2020-Oct-28 10:00N 44°00' E 009°50'5 3.2
2020-Oct-28 08:30N 44°05' E 009°51'5547.0
2020-Oct-28 08:30N 44°00' E 009°50'0 0.0
2020-Oct-28 07:30N 44°00' E 009°50'0 1.3
2020-Oct-28 07:25N 44°00' E 009°50'0 0.1
2020-Oct-28 06:30N 44°00' E 009°50'0 0.0
2020-Oct-28 04:00N 44°00' E 009°50'0 0.0
2020-Oct-27 23:00N 44°00' E 009°50'0 0.0
2020-Oct-27 21:00N 44°00' E 009°50'0 0.0
2020-Oct-27 20:00N 44°00' E 009°50'0 0.0
2020-Oct-27 17:00N 44°00' E 009°50'0 0.0
2020-Oct-27 15:00N 44°00' E 009°50'0 0.0
2020-Oct-27 12:30N 44°00' E 009°50'0 0.0
2020-Oct-27 11:00N 44°00' E 009°50'0 0.2
2020-Oct-27 10:30N 44°00' E 009°50'0 0.1
2020-Oct-27 09:30N 44°00' E 009°50'0 0.0
2020-Oct-27 08:00N 44°00' E 009°50'0 0.0
2020-Oct-27 07:30N 44°00' E 009°50'4 2.6
2020-Oct-27 05:59N 44°03' E 009°54'0 0.0
2020-Oct-27 03:29N 44°03' E 009°54'0 0.1
2020-Oct-27 02:59N 44°03' E 009°54'0 0.0
2020-Oct-26 23:29N 44°03' E 009°54'0 0.0
2020-Oct-26 18:29N 44°03' E 009°54'0 0.0
2020-Oct-26 11:29N 44°03' E 009°54'4 4.1
2020-Oct-26 10:30N 44°06' E 009°50'4282.3
2020-Oct-26 10:29N 44°03' E 009°54'0 0.0
2020-Oct-26 06:59N 44°03' E 009°54'0 4.6
2020-Oct-26 06:58N 44°03' E 009°53'0 0.2
2020-Oct-26 06:29N 44°03' E 009°54'0 0.1
2020-Oct-26 05:59N 44°03' E 009°54'0 0.0
2020-Oct-26 05:29N 44°03' E 009°54'0 0.0
2020-Oct-26 04:56N 44°03' E 009°54'0 0.0
2020-Oct-26 02:29N 44°03' E 009°54'0 0.0
2020-Oct-26 00:29N 44°03' E 009°54'0 0.0
2020-Oct-25 22:59N 44°03' E 009°54'0 0.0
2020-Oct-25 18:59N 44°03' E 009°54'0 0.0
2020-Oct-25 18:29N 44°03' E 009°54'0 0.0
2020-Oct-25 17:29N 44°03' E 009°54'0 0.3
2020-Oct-25 17:12N 44°03' E 009°54'4 5.9
2020-Oct-25 16:29N 44°06' E 009°50'415368.4
2020-Oct-25 16:29N 44°03' E 009°54'4 8.5
2020-Oct-25 15:59N 44°06' E 009°50'47670.0
2020-Oct-25 15:59N 44°03' E 009°54'4 8.5
2020-Oct-25 15:29N 44°06' E 009°50'47645.8
2020-Oct-25 15:29N 44°03' E 009°54'3 2.6
2020-Oct-25 14:30N 44°05' E 009°51'3139.1
2020-Oct-25 14:29N 44°03' E 009°54'4 0.9
2020-Oct-25 10:31N 44°01' E 009°50'0 0.0
2020-Oct-25 08:30N 44°01' E 009°50'0 0.0
2020-Oct-25 05:30N 44°01' E 009°50'0 0.0
2020-Oct-25 04:30N 44°01' E 009°50'0 0.0
2020-Oct-25 03:00N 44°01' E 009°50'0 0.0
2020-Oct-25 02:00N 44°01' E 009°50'0 0.0
2020-Oct-25 00:00N 44°01' E 009°50'0 0.0
2020-Oct-24 22:30N 44°01' E 009°50'0 0.1
2020-Oct-24 22:00N 44°01' E 009°50'0 0.0
2020-Oct-24 18:00N 44°01' E 009°50'0 0.1
2020-Oct-24 16:30N 44°01' E 009°50'518768.9
2020-Oct-24 16:30N 44°06' E 009°51'5 2.1
2020-Oct-24 14:00N 44°01' E 009°50'0 0.0
2020-Oct-24 12:00N 44°01' E 009°50'6271.7
2020-Oct-24 11:59N 44°06' E 009°50'4 4.4
2020-Oct-24 11:00N 44°02' E 009°51'2604.7
2020-Oct-24 11:00N 44°01' E 009°50'0 0.0
2020-Oct-24 10:00N 44°01' E 009°50'0 0.0
2020-Oct-24 03:00N 44°01' E 009°50'0 0.0
2020-Oct-24 01:30N 44°01' E 009°50'0 0.0
2020-Oct-23 23:30N 44°01' E 009°50'0 0.0
2020-Oct-23 22:00N 44°01' E 009°50'0 0.0
2020-Oct-23 16:30N 44°01' E 009°50'0 0.0
2020-Oct-23 10:30N 44°00' E 009°50'2886.3
2020-Oct-23 10:30N 44°03' E 009°51'0 5.1
2020-Oct-23 10:29N 44°03' E 009°51'2 1.2
2020-Oct-23 08:30N 44°01' E 009°50'0 0.0
2020-Oct-23 07:30N 44°00' E 009°50'6289.3
2020-Oct-23 07:29N 44°06' E 009°50'0 0.2
2020-Oct-23 07:19N 44°06' E 009°50'618.8
2020-Oct-23 07:00N 44°01' E 009°50'311936.0
2020-Oct-23 07:00N 44°04' E 009°51'021.5
2020-Oct-23 06:59N 44°04' E 009°51'4 7.7
2020-Oct-23 06:30N 44°01' E 009°50'0 0.0
2020-Oct-23 04:00N 44°00' E 009°50'0 0.0
2020-Oct-23 00:30N 44°00' E 009°50'0 0.0
2020-Oct-22 22:30N 44°00' E 009°50'0 0.0
2020-Oct-22 18:30N 44°00' E 009°50'0 0.0
2020-Oct-22 18:00N 44°00' E 009°50'0 0.0
2020-Oct-22 15:00N 44°00' E 009°50'621384.7
2020-Oct-22 15:00N 44°06' E 009°50'1 2.7
2020-Oct-22 14:30N 44°05' E 009°51'55662.5
2020-Oct-22 14:30N 44°00' E 009°50'0 0.0
2020-Oct-22 14:00N 44°00' E 009°50'1152.2
2020-Oct-22 14:00N 44°01' E 009°51'1 0.4
2020-Oct-22 11:00N 44°00' E 009°50'0 0.1
2020-Oct-22 10:30N 44°00' E 009°50'5 2.1
2020-Oct-22 08:01N 44°06' E 009°50'51566.7
2020-Oct-22 08:00N 44°00' E 009°50'611.9
2020-Oct-22 07:30N 44°06' E 009°50'67123.1
2020-Oct-22 07:30N 44°00' E 009°50'1 1.2
2020-Oct-22 06:30N 44°01' E 009°51'1727.4
2020-Oct-22 06:30N 44°00' E 009°50'0 0.0
2020-Oct-22 05:00N 44°00' E 009°50'0 0.0
2020-Oct-22 03:30N 44°00' E 009°50'0 0.0
2020-Oct-22 00:00N 44°00' E 009°50'0 0.0
2020-Oct-21 23:30N 44°00' E 009°50'0 0.0
2020-Oct-21 20:00N 44°00' E 009°50'0 0.0
2020-Oct-21 19:00N 44°00' E 009°50'0 0.0
2020-Oct-21 17:30N 44°00' E 009°50'0 0.0
2020-Oct-21 14:30N 44°00' E 009°50'3490.5
2020-Oct-21 14:30N 44°04' E 009°51'3 2.3
2020-Oct-21 13:00N 44°00' E 009°50'0 0.0
2020-Oct-21 09:30N 44°00' E 009°50'1415.2
2020-Oct-21 09:30N 44°01' E 009°51'1 1.4
2020-Oct-21 09:00N 44°00' E 009°50'52982.5
2020-Oct-21 09:00N 44°05' E 009°50'510.0
2020-Oct-21 08:30N 44°00' E 009°50'67243.2
2020-Oct-21 08:30N 44°06' E 009°50'6 6.0
2020-Oct-21 07:30N 44°00' E 009°50'67236.0
2020-Oct-21 07:30N 44°06' E 009°50'5 5.4
2020-Oct-21 06:30N 44°01' E 009°51'1797.4
2020-Oct-21 06:30N 44°00' E 009°50'0 0.2
2020-Oct-21 06:00N 44°00' E 009°50'066.7
2020-Oct-21 06:00N 44°00' E 009°50'0 0.0
2020-Oct-21 04:30N 44°00' E 009°50'0 0.0
2020-Oct-21 04:00N 44°00' E 009°50'0 0.0
2020-Oct-21 03:30N 44°00' E 009°50'0 0.0
2020-Oct-21 02:30N 44°00' E 009°50'0 0.0
2020-Oct-21 00:30N 44°00' E 009°50'0 0.0
2020-Oct-20 19:30N 44°00' E 009°50'2 0.6
2020-Oct-20 16:00N 44°02' E 009°51'2690.0
2020-Oct-20 16:00N 44°00' E 009°50'0 0.0
2020-Oct-20 13:00N 44°00' E 009°50'0 0.0
2020-Oct-20 08:30N 44°00' E 009°50'6149.3
2020-Oct-20 08:28N 44°06' E 009°50'6 3.1
2020-Oct-20 06:30N 44°00' E 009°50'0 0.7
2020-Oct-20 06:25N 44°00' E 009°50'0 0.1
2020-Oct-20 05:00N 44°00' E 009°50'0 0.0
2020-Oct-20 04:00N 44°00' E 009°50'0 0.0
2020-Oct-20 03:30N 44°00' E 009°50'0 0.0
2020-Oct-19 20:30N 44°00' E 009°50'0 0.0
2020-Oct-19 20:00N 44°00' E 009°50'0 0.0
2020-Oct-19 15:00N 44°00' E 009°50'0 0.0
2020-Oct-19 14:00N 44°00' E 009°50'0 0.0
2020-Oct-19 13:00N 44°00' E 009°50'0 0.0
2020-Oct-19 11:00N 44°00' E 009°50'0 0.0
2020-Oct-19 09:00N 44°00' E 009°50'0 1.6
2020-Oct-19 08:58N 44°00' E 009°50'0 0.1
2020-Oct-19 08:30N 44°00' E 009°50'31661.9
2020-Oct-19 08:30N 44°04' E 009°51'3 2.2
2020-Oct-19 07:00N 44°00' E 009°50'2247.5
2020-Oct-19 07:00N 44°02' E 009°52'2 0.9
2020-Oct-19 04:30N 44°00' E 009°50'0 0.0
2020-Oct-19 03:00N 44°00' E 009°50'0 0.0
2020-Oct-19 02:30N 44°00' E 009°50'0 0.0
2020-Oct-19 01:00N 44°00' E 009°50'  

Dump ship's entire track history